sensor_id;sensor_type;location;lat;lon;timestamp;pressure;altitude;pressure_sealevel;temperature;humidity
13767;BME280;47980;48.794;9.176;2022-12-11T00:02:14;97617.59;;;-0.52;92.47
13767;BME280;47980;48.794;9.176;2022-12-11T00:04:46;97623.59;;;-0.57;94.02
13767;BME280;47980;48.794;9.176;2022-12-11T00:07:18;97617.59;;;-0.62;94.71
13767;BME280;47980;48.794;9.176;2022-12-11T00:09:49;97615.50;;;-0.55;93.57
13767;BME280;47980;48.794;9.176;2022-12-11T00:12:21;97608.72;;;-0.51;93.58
13767;BME280;47980;48.794;9.176;2022-12-11T00:14:55;97610.31;;;-0.60;94.29
13767;BME280;47980;48.794;9.176;2022-12-11T00:17:26;97618.13;;;-0.50;94.22
13767;BME280;47980;48.794;9.176;2022-12-11T00:19:58;97622.25;;;-0.39;92.95
13767;BME280;47980;48.794;9.176;2022-12-11T00:22:30;97617.06;;;-0.49;92.26
13767;BME280;47980;48.794;9.176;2022-12-11T00:25:02;97616.78;;;-0.47;91.57
13767;BME280;47980;48.794;9.176;2022-12-11T00:27:34;97618.84;;;-0.34;93.46
13767;BME280;47980;48.794;9.176;2022-12-11T00:30:09;97614.94;;;-0.32;92.24
13767;BME280;47980;48.794;9.176;2022-12-11T00:32:41;97614.66;;;-0.30;92.66
13767;BME280;47980;48.794;9.176;2022-12-11T00:35:13;97619.28;;;-0.12;91.62
13767;BME280;47980;48.794;9.176;2022-12-11T00:37:45;97613.13;;;0.23;91.01
13767;BME280;47980;48.794;9.176;2022-12-11T00:40:16;97609.94;;;0.32;89.30
13767;BME280;47980;48.794;9.176;2022-12-11T00:42:48;97610.50;;;0.29;88.85
13767;BME280;47980;48.794;9.176;2022-12-11T00:45:21;97609.13;;;0.41;88.17
13767;BME280;47980;48.794;9.176;2022-12-11T00:47:53;97604.88;;;0.51;87.80
13767;BME280;47980;48.794;9.176;2022-12-11T00:50:25;97604.34;;;0.54;87.62
13767;BME280;47980;48.794;9.176;2022-12-11T00:52:57;97607.22;;;0.52;86.67
13767;BME280;47980;48.794;9.176;2022-12-11T00:55:29;97608.53;;;0.55;87.34
13767;BME280;47980;48.794;9.176;2022-12-11T00:58:01;97611.09;;;0.60;87.59
13767;BME280;47980;48.794;9.176;2022-12-11T01:00:34;97616.06;;;0.56;88.11
13767;BME280;47980;48.794;9.176;2022-12-11T01:03:06;97626.50;;;0.56;88.75
13767;BME280;47980;48.794;9.176;2022-12-11T01:05:38;97617.91;;;0.56;88.67
13767;BME280;47980;48.794;9.176;2022-12-11T01:08:10;97617.38;;;0.59;89.53
13767;BME280;47980;48.794;9.176;2022-12-11T01:10:41;97626.16;;;0.68;89.40
13767;BME280;47980;48.794;9.176;2022-12-11T01:13:12;97631.16;;;0.64;89.04
13767;BME280;47980;48.794;9.176;2022-12-11T01:15:45;97626.47;;;0.61;87.85
13767;BME280;47980;48.794;9.176;2022-12-11T01:18:17;97635.88;;;0.62;88.18
13767;BME280;47980;48.794;9.176;2022-12-11T01:20:49;97634.50;;;0.70;88.46
13767;BME280;47980;48.794;9.176;2022-12-11T01:23:20;97646.78;;;0.69;88.72
13767;BME280;47980;48.794;9.176;2022-12-11T01:25:52;97646.53;;;0.66;89.60
13767;BME280;47980;48.794;9.176;2022-12-11T01:28:24;97652.00;;;0.69;89.04
13767;BME280;47980;48.794;9.176;2022-12-11T01:30:57;97653.22;;;0.82;89.39
13767;BME280;47980;48.794;9.176;2022-12-11T01:33:29;97647.97;;;0.87;86.70
13767;BME280;47980;48.794;9.176;2022-12-11T01:36:06;97652.13;;;0.88;86.89
13767;BME280;47980;48.794;9.176;2022-12-11T01:38:37;97644.41;;;0.73;86.82
13767;BME280;47980;48.794;9.176;2022-12-11T01:41:10;97647.72;;;0.44;89.01
13767;BME280;47980;48.794;9.176;2022-12-11T01:43:59;97644.50;;;0.58;87.65
13767;BME280;47980;48.794;9.176;2022-12-11T01:46:34;97652.25;;;0.68;86.97
13767;BME280;47980;48.794;9.176;2022-12-11T01:49:09;97657.75;;;0.66;88.27
13767;BME280;47980;48.794;9.176;2022-12-11T01:51:47;97644.72;;;0.61;87.69
13767;BME280;47980;48.794;9.176;2022-12-11T01:54:22;97652.00;;;0.69;87.46
13767;BME280;47980;48.794;9.176;2022-12-11T01:56:58;97656.94;;;0.71;89.08
13767;BME280;47980;48.794;9.176;2022-12-11T01:59:33;97655.97;;;0.62;86.65
13767;BME280;47980;48.794;9.176;2022-12-11T02:02:12;97660.81;;;0.79;87.01
13767;BME280;47980;48.794;9.176;2022-12-11T02:04:46;97659.44;;;0.86;84.98
13767;BME280;47980;48.794;9.176;2022-12-11T02:07:18;97656.28;;;0.89;84.63
13767;BME280;47980;48.794;9.176;2022-12-11T02:09:50;97659.66;;;0.95;84.33
13767;BME280;47980;48.794;9.176;2022-12-11T02:12:32;97661.50;;;0.89;84.42
13767;BME280;47980;48.794;9.176;2022-12-11T02:15:11;97663.53;;;0.98;84.50
13767;BME280;47980;48.794;9.176;2022-12-11T02:17:49;97662.47;;;1.04;84.32
13767;BME280;47980;48.794;9.176;2022-12-11T02:20:27;97660.38;;;1.06;83.81
13767;BME280;47980;48.794;9.176;2022-12-11T02:23:22;97658.78;;;1.05;83.67
13767;BME280;47980;48.794;9.176;2022-12-11T02:26:06;97659.13;;;0.98;83.63
13767;BME280;47980;48.794;9.176;2022-12-11T02:28:46;97656.63;;;1.12;83.28
13767;BME280;47980;48.794;9.176;2022-12-11T02:31:23;97651.47;;;1.07;82.93
13767;BME280;47980;48.794;9.176;2022-12-11T02:34:00;97654.66;;;0.99;84.13
13767;BME280;47980;48.794;9.176;2022-12-11T02:36:36;97642.84;;;1.06;84.00
13767;BME280;47980;48.794;9.176;2022-12-11T02:39:11;97645.63;;;1.20;83.97
13767;BME280;47980;48.794;9.176;2022-12-11T02:41:47;97653.91;;;1.27;83.08
13767;BME280;47980;48.794;9.176;2022-12-11T02:44:24;97652.16;;;1.17;82.78
13767;BME280;47980;48.794;9.176;2022-12-11T02:46:59;97653.47;;;1.20;82.52
13767;BME280;47980;48.794;9.176;2022-12-11T02:49:32;97651.47;;;1.36;81.64
13767;BME280;47980;48.794;9.176;2022-12-11T02:52:05;97642.41;;;1.28;80.05
13767;BME280;47980;48.794;9.176;2022-12-11T02:54:38;97647.47;;;1.14;80.99
13767;BME280;47980;48.794;9.176;2022-12-11T02:57:16;97658.22;;;1.13;81.28
13767;BME280;47980;48.794;9.176;2022-12-11T02:59:50;97650.22;;;0.99;83.18
13767;BME280;47980;48.794;9.176;2022-12-11T03:02:22;97655.63;;;1.08;82.75
13767;BME280;47980;48.794;9.176;2022-12-11T03:04:54;97647.03;;;1.07;83.33
13767;BME280;47980;48.794;9.176;2022-12-11T03:07:31;97648.94;;;0.96;83.90
13767;BME280;47980;48.794;9.176;2022-12-11T03:10:04;97645.84;;;0.89;83.80
13767;BME280;47980;48.794;9.176;2022-12-11T03:12:39;97649.28;;;0.85;84.01
13767;BME280;47980;48.794;9.176;2022-12-11T03:15:16;97647.97;;;0.87;85.64
13767;BME280;47980;48.794;9.176;2022-12-11T03:17:58;97648.81;;;0.78;84.75
13767;BME280;47980;48.794;9.176;2022-12-11T03:20:36;97651.06;;;0.94;84.86
13767;BME280;47980;48.794;9.176;2022-12-11T03:23:17;97651.06;;;0.89;85.51
13767;BME280;47980;48.794;9.176;2022-12-11T03:25:53;97656.16;;;1.05;84.45
13767;BME280;47980;48.794;9.176;2022-12-11T03:28:29;97653.75;;;0.79;84.70
13767;BME280;47980;48.794;9.176;2022-12-11T03:31:07;97660.06;;;0.73;87.13
13767;BME280;47980;48.794;9.176;2022-12-11T03:33:42;97654.94;;;0.58;86.62
13767;BME280;47980;48.794;9.176;2022-12-11T03:36:19;97657.56;;;0.53;88.33
13767;BME280;47980;48.794;9.176;2022-12-11T03:38:56;97654.69;;;0.59;87.16
13767;BME280;47980;48.794;9.176;2022-12-11T03:41:30;97654.09;;;0.67;87.86
13767;BME280;47980;48.794;9.176;2022-12-11T03:44:02;97652.06;;;0.59;87.63
13767;BME280;47980;48.794;9.176;2022-12-11T03:46:38;97657.25;;;0.64;88.10
13767;BME280;47980;48.794;9.176;2022-12-11T03:49:15;97659.88;;;0.59;89.45
13767;BME280;47980;48.794;9.176;2022-12-11T03:51:49;97653.41;;;0.52;89.44
13767;BME280;47980;48.794;9.176;2022-12-11T03:54:22;97653.81;;;0.24;89.31
13767;BME280;47980;48.794;9.176;2022-12-11T03:56:57;97654.41;;;0.11;91.06
13767;BME280;47980;48.794;9.176;2022-12-11T03:59:29;97655.03;;;0.42;90.17
13767;BME280;47980;48.794;9.176;2022-12-11T04:02:03;97645.84;;;0.50;89.76
13767;BME280;47980;48.794;9.176;2022-12-11T04:04:41;97648.19;;;0.52;90.12
13767;BME280;47980;48.794;9.176;2022-12-11T04:07:13;97642.09;;;0.66;89.90
13767;BME280;47980;48.794;9.176;2022-12-11T04:09:45;97640.06;;;0.58;89.49
13767;BME280;47980;48.794;9.176;2022-12-11T04:12:16;97640.88;;;0.54;89.51
13767;BME280;47980;48.794;9.176;2022-12-11T04:14:48;97636.47;;;0.49;88.50
13767;BME280;47980;48.794;9.176;2022-12-11T04:17:35;97633.56;;;0.56;87.44
13767;BME280;47980;48.794;9.176;2022-12-11T04:20:24;97634.28;;;0.66;86.30
13767;BME280;47980;48.794;9.176;2022-12-11T04:23:15;97624.66;;;0.62;85.30
13767;BME280;47980;48.794;9.176;2022-12-11T04:26:05;97615.00;;;0.62;85.31
13767;BME280;47980;48.794;9.176;2022-12-11T04:28:38;97613.81;;;0.44;83.73
13767;BME280;47980;48.794;9.176;2022-12-11T04:31:10;97615.88;;;0.47;83.32
13767;BME280;47980;48.794;9.176;2022-12-11T04:33:44;97610.09;;;0.51;83.28
13767;BME280;47980;48.794;9.176;2022-12-11T04:36:16;97611.13;;;0.55;83.00
13767;BME280;47980;48.794;9.176;2022-12-11T04:38:48;97608.34;;;0.41;82.06
13767;BME280;47980;48.794;9.176;2022-12-11T04:41:20;97597.16;;;0.35;82.05
13767;BME280;47980;48.794;9.176;2022-12-11T04:43:51;97604.16;;;0.40;83.09
13767;BME280;47980;48.794;9.176;2022-12-11T04:46:24;97604.72;;;0.32;82.02
13767;BME280;47980;48.794;9.176;2022-12-11T04:48:57;97601.41;;;0.21;82.76
13767;BME280;47980;48.794;9.176;2022-12-11T04:51:30;97598.56;;;0.17;83.51
13767;BME280;47980;48.794;9.176;2022-12-11T04:54:01;97589.03;;;0.42;82.25
13767;BME280;47980;48.794;9.176;2022-12-11T04:56:33;97584.97;;;0.20;82.27
13767;BME280;47980;48.794;9.176;2022-12-11T04:59:05;97581.56;;;0.25;83.14
13767;BME280;47980;48.794;9.176;2022-12-11T05:01:36;97583.88;;;0.32;81.62
13767;BME280;47980;48.794;9.176;2022-12-11T05:04:10;97588.06;;;0.28;81.76
13767;BME280;47980;48.794;9.176;2022-12-11T05:06:41;97590.38;;;0.34;81.58
13767;BME280;47980;48.794;9.176;2022-12-11T05:09:13;97595.41;;;0.20;81.35
13767;BME280;47980;48.794;9.176;2022-12-11T05:11:45;97604.41;;;0.43;80.85
13767;BME280;47980;48.794;9.176;2022-12-11T05:14:17;97607.00;;;0.43;80.59
13767;BME280;47980;48.794;9.176;2022-12-11T05:16:48;97602.25;;;0.51;80.59
13767;BME280;47980;48.794;9.176;2022-12-11T05:19:21;97600.19;;;0.53;79.66
13767;BME280;47980;48.794;9.176;2022-12-11T05:21:54;97601.09;;;0.33;80.96
13767;BME280;47980;48.794;9.176;2022-12-11T05:24:25;97587.72;;;0.44;80.68
13767;BME280;47980;48.794;9.176;2022-12-11T05:26:57;97587.88;;;0.19;82.40
13767;BME280;47980;48.794;9.176;2022-12-11T05:29:29;97587.09;;;0.13;82.73
13767;BME280;47980;48.794;9.176;2022-12-11T05:32:01;97591.59;;;0.03;82.83
13767;BME280;47980;48.794;9.176;2022-12-11T05:34:34;97600.00;;;-0.11;83.28
13767;BME280;47980;48.794;9.176;2022-12-11T05:37:06;97613.47;;;0.07;83.56
13767;BME280;47980;48.794;9.176;2022-12-11T05:39:38;97601.50;;;0.50;80.50
13767;BME280;47980;48.794;9.176;2022-12-11T05:42:12;97601.44;;;0.11;80.34
13767;BME280;47980;48.794;9.176;2022-12-11T05:44:44;97599.53;;;-0.18;82.16
13767;BME280;47980;48.794;9.176;2022-12-11T05:47:16;97589.50;;;0.05;80.87
13767;BME280;47980;48.794;9.176;2022-12-11T05:49:50;97599.53;;;-0.23;82.92
13767;BME280;47980;48.794;9.176;2022-12-11T05:52:22;97595.44;;;-0.39;84.18
13767;BME280;47980;48.794;9.176;2022-12-11T05:54:54;97597.75;;;-0.38;84.91
13767;BME280;47980;48.794;9.176;2022-12-11T05:57:25;97593.84;;;-0.40;84.09
13767;BME280;47980;48.794;9.176;2022-12-11T05:59:57;97590.00;;;-0.53;86.88
13767;BME280;47980;48.794;9.176;2022-12-11T06:02:29;97596.50;;;-0.51;85.98
13767;BME280;47980;48.794;9.176;2022-12-11T06:05:02;97596.00;;;-0.58;86.20
13767;BME280;47980;48.794;9.176;2022-12-11T06:07:34;97597.53;;;-0.46;88.29
13767;BME280;47980;48.794;9.176;2022-12-11T06:10:07;97598.31;;;-0.51;88.01
13767;BME280;47980;48.794;9.176;2022-12-11T06:12:39;97600.44;;;-0.63;89.82
13767;BME280;47980;48.794;9.176;2022-12-11T06:15:11;97600.44;;;-0.68;90.54
13767;BME280;47980;48.794;9.176;2022-12-11T06:17:42;97592.59;;;-0.58;89.07
13767;BME280;47980;48.794;9.176;2022-12-11T06:20:16;97595.22;;;-0.63;90.07
13767;BME280;47980;48.794;9.176;2022-12-11T06:22:47;97593.94;;;-0.81;92.22
13767;BME280;47980;48.794;9.176;2022-12-11T06:25:19;97585.13;;;-0.90;91.82
13767;BME280;47980;48.794;9.176;2022-12-11T06:27:51;97593.44;;;-0.88;92.69
13767;BME280;47980;48.794;9.176;2022-12-11T06:30:23;97587.97;;;-1.02;94.07
13767;BME280;47980;48.794;9.176;2022-12-11T06:32:57;97587.72;;;-0.95;94.63
13767;BME280;47980;48.794;9.176;2022-12-11T06:35:30;97577.06;;;-0.99;94.35
13767;BME280;47980;48.794;9.176;2022-12-11T06:38:02;97578.63;;;-0.93;94.29
13767;BME280;47980;48.794;9.176;2022-12-11T06:40:36;97583.81;;;-0.93;95.14
13767;BME280;47980;48.794;9.176;2022-12-11T06:43:08;97579.13;;;-0.86;94.76
13767;BME280;47980;48.794;9.176;2022-12-11T06:45:40;97582.00;;;-0.92;94.38
13767;BME280;47980;48.794;9.176;2022-12-11T06:48:12;97581.72;;;-0.91;93.91
13767;BME280;47980;48.794;9.176;2022-12-11T06:50:46;97576.75;;;-0.77;93.12
13767;BME280;47980;48.794;9.176;2022-12-11T06:53:17;97574.69;;;-0.75;91.71
13767;BME280;47980;48.794;9.176;2022-12-11T06:55:49;97581.41;;;-0.64;91.35
13767;BME280;47980;48.794;9.176;2022-12-11T06:58:21;97581.41;;;-0.59;90.54
13767;BME280;47980;48.794;9.176;2022-12-11T07:00:53;97585.34;;;-0.61;90.67
13767;BME280;47980;48.794;9.176;2022-12-11T07:03:25;97602.81;;;-0.72;91.00
13767;BME280;47980;48.794;9.176;2022-12-11T07:06:01;97611.38;;;-0.66;90.55
13767;BME280;47980;48.794;9.176;2022-12-11T07:08:35;97600.69;;;-0.70;90.90
13767;BME280;47980;48.794;9.176;2022-12-11T07:11:09;97607.97;;;-0.67;90.63
13767;BME280;47980;48.794;9.176;2022-12-11T07:13:41;97602.22;;;-0.59;90.06
13767;BME280;47980;48.794;9.176;2022-12-11T07:16:15;97605.13;;;-0.60;89.24
13767;BME280;47980;48.794;9.176;2022-12-11T07:18:48;97598.34;;;-0.66;89.30
13767;BME280;47980;48.794;9.176;2022-12-11T07:21:22;97597.81;;;-0.58;90.18
13767;BME280;47980;48.794;9.176;2022-12-11T07:23:54;97607.16;;;-0.47;88.73
13767;BME280;47980;48.794;9.176;2022-12-11T07:26:26;97614.44;;;-0.44;88.43
13767;BME280;47980;48.794;9.176;2022-12-11T07:28:58;97612.34;;;-0.32;87.73
13767;BME280;47980;48.794;9.176;2022-12-11T07:31:30;97603.72;;;-0.27;87.18
13767;BME280;47980;48.794;9.176;2022-12-11T07:34:04;97606.28;;;-0.17;86.17
13767;BME280;47980;48.794;9.176;2022-12-11T07:36:38;97610.94;;;-0.04;86.50
13767;BME280;47980;48.794;9.176;2022-12-11T07:39:10;97614.81;;;-0.01;84.71
13767;BME280;47980;48.794;9.176;2022-12-11T07:41:42;97611.59;;;0.17;84.47
13767;BME280;47980;48.794;9.176;2022-12-11T07:44:15;97620.50;;;0.11;84.53
13767;BME280;47980;48.794;9.176;2022-12-11T07:46:47;97620.19;;;0.23;83.58
13767;BME280;47980;48.794;9.176;2022-12-11T07:49:18;97618.31;;;0.29;83.07
13767;BME280;47980;48.794;9.176;2022-12-11T07:51:54;97614.88;;;0.38;82.27
13767;BME280;47980;48.794;9.176;2022-12-11T07:54:26;97612.06;;;0.24;81.08
13767;BME280;47980;48.794;9.176;2022-12-11T07:56:57;97604.97;;;0.40;81.21
13767;BME280;47980;48.794;9.176;2022-12-11T07:59:29;97611.69;;;0.46;80.75
13767;BME280;47980;48.794;9.176;2022-12-11T08:02:01;97609.31;;;0.50;80.30
13767;BME280;47980;48.794;9.176;2022-12-11T08:04:33;97604.56;;;0.62;79.78
13767;BME280;47980;48.794;9.176;2022-12-11T08:07:06;97600.75;;;0.84;80.33
13767;BME280;47980;48.794;9.176;2022-12-11T08:09:39;97604.91;;;0.85;79.05
13767;BME280;47980;48.794;9.176;2022-12-11T08:12:11;97597.69;;;0.71;79.54
13767;BME280;47980;48.794;9.176;2022-12-11T08:14:43;97609.22;;;1.00;78.63
13767;BME280;47980;48.794;9.176;2022-12-11T08:17:15;97605.38;;;1.21;78.51
13767;BME280;47980;48.794;9.176;2022-12-11T08:19:47;97604.00;;;1.29;76.88
13767;BME280;47980;48.794;9.176;2022-12-11T08:22:20;97599.22;;;1.36;76.75
13767;BME280;47980;48.794;9.176;2022-12-11T08:24:52;97603.94;;;1.34;76.46
13767;BME280;47980;48.794;9.176;2022-12-11T08:27:24;97608.53;;;1.18;77.10
13767;BME280;47980;48.794;9.176;2022-12-11T08:29:56;97611.00;;;1.33;78.10
13767;BME280;47980;48.794;9.176;2022-12-11T08:32:29;97606.00;;;1.37;76.99
13767;BME280;47980;48.794;9.176;2022-12-11T08:35:02;97608.78;;;1.22;77.24
13767;BME280;47980;48.794;9.176;2022-12-11T08:37:39;97610.16;;;1.14;77.27
13767;BME280;47980;48.794;9.176;2022-12-11T08:40:11;97610.53;;;1.26;76.35
13767;BME280;47980;48.794;9.176;2022-12-11T08:42:43;97618.34;;;1.02;77.34
13767;BME280;47980;48.794;9.176;2022-12-11T08:45:15;97616.06;;;0.95;75.49
13767;BME280;47980;48.794;9.176;2022-12-11T08:47:46;97613.22;;;0.92;75.47
13767;BME280;47980;48.794;9.176;2022-12-11T08:50:18;97618.16;;;0.59;78.08
13767;BME280;47980;48.794;9.176;2022-12-11T08:52:51;97622.28;;;0.65;79.03
13767;BME280;47980;48.794;9.176;2022-12-11T08:55:24;97611.06;;;0.99;76.92
13767;BME280;47980;48.794;9.176;2022-12-11T08:57:56;97611.22;;;1.13;76.31
13767;BME280;47980;48.794;9.176;2022-12-11T09:00:28;97605.47;;;1.11;77.71
13767;BME280;47980;48.794;9.176;2022-12-11T09:02:59;97602.91;;;1.06;77.34
13767;BME280;47980;48.794;9.176;2022-12-11T09:05:32;97606.16;;;1.22;77.59
13767;BME280;47980;48.794;9.176;2022-12-11T09:08:05;97601.06;;;1.06;78.36
13767;BME280;47980;48.794;9.176;2022-12-11T09:10:37;97605.56;;;1.30;78.21
13767;BME280;47980;48.794;9.176;2022-12-11T09:13:09;97601.69;;;1.51;77.86
13767;BME280;47980;48.794;9.176;2022-12-11T09:15:41;97601.44;;;1.24;78.15
13767;BME280;47980;48.794;9.176;2022-12-11T09:18:14;97595.47;;;1.18;79.78
13767;BME280;47980;48.794;9.176;2022-12-11T09:20:46;97596.47;;;0.98;81.51
13767;BME280;47980;48.794;9.176;2022-12-11T09:23:19;97599.34;;;0.62;82.20
13767;BME280;47980;48.794;9.176;2022-12-11T09:25:51;97600.31;;;1.06;80.90
13767;BME280;47980;48.794;9.176;2022-12-11T09:28:23;97599.16;;;1.41;79.21
13767;BME280;47980;48.794;9.176;2022-12-11T09:30:55;97593.19;;;1.64;78.82
13767;BME280;47980;48.794;9.176;2022-12-11T09:33:26;97608.13;;;1.83;79.06
13767;BME280;47980;48.794;9.176;2022-12-11T09:35:58;97594.88;;;1.74;77.20
13767;BME280;47980;48.794;9.176;2022-12-11T09:38:32;97594.66;;;1.95;76.93
13767;BME280;47980;48.794;9.176;2022-12-11T09:41:28;97594.25;;;1.63;77.35
13767;BME280;47980;48.794;9.176;2022-12-11T09:44:19;97592.47;;;2.02;77.01
13767;BME280;47980;48.794;9.176;2022-12-11T09:46:56;97591.44;;;2.22;75.29
13767;BME280;47980;48.794;9.176;2022-12-11T09:49:33;97585.13;;;2.41;74.19
13767;BME280;47980;48.794;9.176;2022-12-11T09:52:10;97582.88;;;2.35;74.29
13767;BME280;47980;48.794;9.176;2022-12-11T09:54:48;97579.28;;;2.12;73.61
13767;BME280;47980;48.794;9.176;2022-12-11T09:57:30;97581.53;;;2.37;71.50
13767;BME280;47980;48.794;9.176;2022-12-11T10:00:13;97583.13;;;1.96;72.80
13767;BME280;47980;48.794;9.176;2022-12-11T10:03:07;97588.44;;;2.28;72.47
13767;BME280;47980;48.794;9.176;2022-12-11T10:05:46;97590.28;;;2.09;72.36
13767;BME280;47980;48.794;9.176;2022-12-11T10:08:24;97582.97;;;2.81;70.40
13767;BME280;47980;48.794;9.176;2022-12-11T10:11:21;97588.34;;;1.96;72.51
13767;BME280;47980;48.794;9.176;2022-12-11T10:14:04;97588.66;;;1.70;75.92
13767;BME280;47980;48.794;9.176;2022-12-11T10:16:40;97585.75;;;1.96;77.90
13767;BME280;47980;48.794;9.176;2022-12-11T10:19:17;97578.97;;;1.95;78.83
13767;BME280;47980;48.794;9.176;2022-12-11T10:21:50;97569.53;;;1.75;77.84
13767;BME280;47980;48.794;9.176;2022-12-11T10:24:28;97572.75;;;1.90;78.96
13767;BME280;47980;48.794;9.176;2022-12-11T10:27:13;97557.69;;;2.20;76.09
13767;BME280;47980;48.794;9.176;2022-12-11T10:29:46;97555.63;;;2.36;76.36
13767;BME280;47980;48.794;9.176;2022-12-11T10:32:22;97558.19;;;2.03;77.57
13767;BME280;47980;48.794;9.176;2022-12-11T10:34:59;97547.50;;;2.37;76.71
13767;BME280;47980;48.794;9.176;2022-12-11T10:37:33;97550.00;;;2.29;76.42
13767;BME280;47980;48.794;9.176;2022-12-11T10:40:06;97544.28;;;2.08;76.95
13767;BME280;47980;48.794;9.176;2022-12-11T10:42:50;97552.81;;;1.52;79.56
13767;BME280;47980;48.794;9.176;2022-12-11T10:45:22;97558.69;;;1.14;82.00
13767;BME280;47980;48.794;9.176;2022-12-11T10:48:01;97548.09;;;1.54;83.40
13767;BME280;47980;48.794;9.176;2022-12-11T10:50:33;97542.13;;;1.72;80.47
13767;BME280;47980;48.794;9.176;2022-12-11T10:53:05;97539.38;;;1.63;80.98
13767;BME280;47980;48.794;9.176;2022-12-11T10:55:43;97537.13;;;2.13;79.96
13767;BME280;47980;48.794;9.176;2022-12-11T10:58:19;97524.69;;;2.05;78.68
13767;BME280;47980;48.794;9.176;2022-12-11T11:01:02;97518.38;;;2.06;78.45
13767;BME280;47980;48.794;9.176;2022-12-11T11:03:50;97524.97;;;2.23;76.24
13767;BME280;47980;48.794;9.176;2022-12-11T11:06:23;97521.91;;;1.78;78.24
13767;BME280;47980;48.794;9.176;2022-12-11T11:08:57;97521.84;;;2.21;75.97
13767;BME280;47980;48.794;9.176;2022-12-11T11:11:30;97520.22;;;2.06;78.30
13767;BME280;47980;48.794;9.176;2022-12-11T11:14:06;97521.78;;;1.88;79.27
13767;BME280;47980;48.794;9.176;2022-12-11T11:16:39;97516.16;;;2.51;78.03
13767;BME280;47980;48.794;9.176;2022-12-11T11:19:23;97506.84;;;2.45;77.90
13767;BME280;47980;48.794;9.176;2022-12-11T11:21:58;97515.13;;;2.33;77.83
13767;BME280;47980;48.794;9.176;2022-12-11T11:24:34;97504.94;;;2.32;76.30
13767;BME280;47980;48.794;9.176;2022-12-11T11:27:12;97508.94;;;2.76;75.70
13767;BME280;47980;48.794;9.176;2022-12-11T11:29:46;97512.16;;;2.73;76.37
13767;BME280;47980;48.794;9.176;2022-12-11T11:32:21;97503.84;;;2.84;74.79
13767;BME280;47980;48.794;9.176;2022-12-11T11:35:04;97514.63;;;2.31;75.94
13767;BME280;47980;48.794;9.176;2022-12-11T11:37:37;97510.72;;;2.48;75.40
13767;BME280;47980;48.794;9.176;2022-12-11T11:40:12;97509.91;;;2.66;72.90
13767;BME280;47980;48.794;9.176;2022-12-11T11:42:51;97501.56;;;2.12;75.55
13767;BME280;47980;48.794;9.176;2022-12-11T11:45:36;97506.69;;;2.55;73.97
13767;BME280;47980;48.794;9.176;2022-12-11T11:48:21;97502.50;;;2.87;73.50
13767;BME280;47980;48.794;9.176;2022-12-11T11:51:26;97485.78;;;2.69;74.07
13767;BME280;47980;48.794;9.176;2022-12-11T11:54:02;97490.25;;;2.50;74.71
13767;BME280;47980;48.794;9.176;2022-12-11T11:56:39;97491.81;;;2.18;75.44
13767;BME280;47980;48.794;9.176;2022-12-11T11:59:15;97498.50;;;2.24;76.60
13767;BME280;47980;48.794;9.176;2022-12-11T12:01:53;97490.41;;;2.72;74.37
13767;BME280;47980;48.794;9.176;2022-12-11T12:04:30;97491.22;;;2.86;73.50
13767;BME280;47980;48.794;9.176;2022-12-11T12:07:13;97494.50;;;2.78;73.26
13767;BME280;47980;48.794;9.176;2022-12-11T12:09:58;97488.66;;;2.68;74.23
13767;BME280;47980;48.794;9.176;2022-12-11T12:12:41;97493.13;;;2.34;75.08
13767;BME280;47980;48.794;9.176;2022-12-11T12:15:24;97487.25;;;2.42;74.72
13767;BME280;47980;48.794;9.176;2022-12-11T12:18:09;97496.91;;;1.72;78.44
13767;BME280;47980;48.794;9.176;2022-12-11T12:20:48;97492.44;;;2.10;79.34
13767;BME280;47980;48.794;9.176;2022-12-11T12:23:43;97490.63;;;1.91;79.33
13767;BME280;47980;48.794;9.176;2022-12-11T12:26:25;97491.72;;;1.48;81.51
13767;BME280;47980;48.794;9.176;2022-12-11T12:29:07;97491.13;;;1.32;83.04
13767;BME280;47980;48.794;9.176;2022-12-11T12:31:50;97496.38;;;1.51;84.29
13767;BME280;47980;48.794;9.176;2022-12-11T12:34:36;97484.75;;;2.19;80.31
13767;BME280;47980;48.794;9.176;2022-12-11T12:37:16;97480.72;;;2.07;80.51
13767;BME280;47980;48.794;9.176;2022-12-11T12:40:00;97476.06;;;2.04;79.33
13767;BME280;47980;48.794;9.176;2022-12-11T12:42:39;97470.75;;;1.53;83.27
13767;BME280;47980;48.794;9.176;2022-12-11T12:45:23;97474.22;;;1.86;82.03
13767;BME280;47980;48.794;9.176;2022-12-11T12:47:55;97478.97;;;1.41;86.01
13767;BME280;47980;48.794;9.176;2022-12-11T12:50:36;97464.66;;;2.14;82.44
13767;BME280;47980;48.794;9.176;2022-12-11T12:53:09;97464.53;;;2.05;80.75
13767;BME280;47980;48.794;9.176;2022-12-11T12:56:03;97461.09;;;1.72;83.13
13767;BME280;47980;48.794;9.176;2022-12-11T12:58:40;97460.28;;;2.09;80.13
13767;BME280;47980;48.794;9.176;2022-12-11T13:01:16;97462.34;;;1.93;81.06
13767;BME280;47980;48.794;9.176;2022-12-11T13:03:53;97457.91;;;1.75;81.67
13767;BME280;47980;48.794;9.176;2022-12-11T13:06:33;97464.59;;;1.62;83.02
13767;BME280;47980;48.794;9.176;2022-12-11T13:09:14;97467.31;;;1.76;83.75
13767;BME280;47980;48.794;9.176;2022-12-11T13:11:47;97465.81;;;1.70;83.82
13767;BME280;47980;48.794;9.176;2022-12-11T13:14:26;97474.28;;;1.62;82.78
13767;BME280;47980;48.794;9.176;2022-12-11T13:17:06;97470.25;;;1.51;83.89
13767;BME280;47980;48.794;9.176;2022-12-11T13:19:38;97470.44;;;1.35;85.51
13767;BME280;47980;48.794;9.176;2022-12-11T13:22:22;97468.97;;;1.67;83.66
13767;BME280;47980;48.794;9.176;2022-12-11T13:24:58;97466.09;;;1.50;83.08
13767;BME280;47980;48.794;9.176;2022-12-11T13:27:36;97460.00;;;1.35;84.66
13767;BME280;47980;48.794;9.176;2022-12-11T13:30:21;97475.84;;;1.20;86.22
13767;BME280;47980;48.794;9.176;2022-12-11T13:33:00;97472.28;;;1.11;87.04
13767;BME280;47980;48.794;9.176;2022-12-11T13:35:34;97477.91;;;0.99;89.00
13767;BME280;47980;48.794;9.176;2022-12-11T13:38:14;97477.06;;;1.04;87.30
13767;BME280;47980;48.794;9.176;2022-12-11T13:40:51;97474.38;;;0.85;87.00
13767;BME280;47980;48.794;9.176;2022-12-11T13:43:25;97481.22;;;1.05;88.94
13767;BME280;47980;48.794;9.176;2022-12-11T13:45:59;97469.13;;;1.14;86.02
13767;BME280;47980;48.794;9.176;2022-12-11T13:48:34;97477.66;;;1.19;83.54
13767;BME280;47980;48.794;9.176;2022-12-11T13:51:07;97478.28;;;1.35;83.28
13767;BME280;47980;48.794;9.176;2022-12-11T13:53:42;97476.03;;;1.48;84.48